Time;durP1;ratioP1;P1;durP2;ratioP2;P2;SDS_P1;SDS_P2;PMS_P1;PMS_P2;Temp;Humidity;BMP_temperature;BMP_pressure;BME280_temperature;BME280_humidity;BME280_pressure;Samples;Min_cycle;Max_cycle;Signal;HPM_P1;HPM_P2
2022/08/02 00:00:13;;;;;;;0.00;0.00;;;21.60;63.40;;;;;;5092549;28;20020;-79
2022/08/02 00:02:44;;;;;;;0.00;0.00;;;21.60;63.60;;;;;;5092635;28;20188;-80
2022/08/02 00:05:13;;;;;;;0.00;0.00;;;21.70;63.20;;;;;;5069596;28;20530;-79
2022/08/02 00:07:39;;;;;;;0.00;0.00;;;21.80;64.40;;;;;;5088426;28;20020;-79
2022/08/02 00:10:06;;;;;;;0.00;0.00;;;21.80;64.80;;;;;;5075301;28;20032;-79
2022/08/02 00:12:33;;;;;;;0.00;0.00;;;21.80;62.50;;;;;;5080257;28;20028;-79
2022/08/02 00:14:59;;;;;;;0.00;0.00;;;21.80;63.20;;;;;;5077863;28;20439;-79
2022/08/02 00:17:25;;;;;;;0.00;0.00;;;22.00;60.90;;;;;;5077161;28;20114;-79
2022/08/02 00:19:51;;;;;;;0.00;0.00;;;22.20;59.30;;;;;;5075983;28;20029;-79
2022/08/02 00:22:17;;;;;;;0.00;0.00;;;22.10;58.90;;;;;;5072652;28;20021;-79
2022/08/02 00:24:43;;;;;;;0.00;0.00;;;22.10;58.70;;;;;;5056520;28;20031;-79
2022/08/02 00:27:11;;;;;;;0.00;0.00;;;22.10;58.80;;;;;;5085705;28;20036;-79
2022/08/02 00:29:38;;;;;;;0.00;0.00;;;22.20;58.80;;;;;;5102566;28;20044;-79
2022/08/02 00:32:05;;;;;;;0.00;0.00;;;22.20;61.80;;;;;;5085163;28;20024;-79
2022/08/02 00:34:31;;;;;;;0.00;0.00;;;22.30;60.60;;;;;;5076897;28;20074;-79
2022/08/02 00:36:57;;;;;;;0.00;0.00;;;22.30;63.30;;;;;;5077801;28;20027;-79
2022/08/02 00:39:23;;;;;;;0.00;0.00;;;22.40;64.40;;;;;;5087802;28;20032;-79
2022/08/02 00:41:52;;;;;;;0.00;0.00;;;22.60;63.30;;;;;;5093127;28;20059;-79
2022/08/02 00:44:19;;;;;;;0.00;0.00;;;22.80;61.80;;;;;;5086346;28;20410;-79
2022/08/02 00:46:46;;;;;;;0.00;0.00;;;22.90;62.50;;;;;;5092337;28;20102;-80
2022/08/02 00:49:13;;;;;;;0.00;0.00;;;22.80;62.40;;;;;;5070881;28;20550;-79
2022/08/02 00:51:40;;;;;;;0.00;0.00;;;22.70;63.40;;;;;;5090043;28;20027;-79
2022/08/02 00:54:07;;;;;;;0.00;0.00;;;23.20;64.40;;;;;;5089247;28;20089;-79
2022/08/02 00:56:34;;;;;;;0.00;0.00;;;23.90;63.90;;;;;;5089049;28;20122;-79
2022/08/02 00:59:00;;;;;;;0.00;0.00;;;24.60;64.30;;;;;;5073086;28;20361;-79
2022/08/02 01:01:37;;;;;;;0.00;0.00;;;25.10;62.20;;;;;;5074011;28;20044;-79
2022/08/02 01:04:09;;;;;;;0.10;0.10;;;25.50;61.60;;;;;;5073685;28;20473;-78
2022/08/02 01:06:36;;;;;;;0.00;0.00;;;25.70;59.30;;;;;;5089499;28;20020;-79
2022/08/02 01:09:04;;;;;;;0.00;0.00;;;26.20;58.50;;;;;;5091985;28;20024;-79
2022/08/02 01:11:30;;;;;;;0.00;0.00;;;26.40;57.30;;;;;;5091971;28;20028;-80
2022/08/02 01:13:59;;;;;;;0.00;0.00;;;26.80;56.20;;;;;;5091915;28;20021;-80
2022/08/02 01:16:30;;;;;;;0.00;0.00;;;27.00;56.20;;;;;;5089778;28;20023;-80
2022/08/02 01:19:09;;;;;;;0.00;0.00;;;27.40;55.00;;;;;;5089972;28;20017;-80
2022/08/02 01:21:46;;;;;;;0.00;0.00;;;27.70;55.60;;;;;;5091541;28;20026;-80
2022/08/02 01:24:24;;;;;;;0.30;0.30;;;28.00;54.50;;;;;;5077535;28;20572;-80
2022/08/02 01:27:09;;;;;;;0.00;0.00;;;27.90;54.10;;;;;;5095557;28;20028;-80
2022/08/02 01:29:40;;;;;;;0.00;0.00;;;27.80;54.00;;;;;;5079721;28;20027;-79
2022/08/02 01:32:19;;;;;;;0.00;0.00;;;27.90;53.50;;;;;;5098713;28;20032;-80
2022/08/02 01:35:19;;;;;;;0.63;0.63;;;27.90;53.90;;;;;;5082931;28;20135;-80
2022/08/02 01:38:06;;;;;;;0.00;0.00;;;28.00;53.10;;;;;;5102219;28;20020;-80
2022/08/02 01:40:36;;;;;;;0.00;0.00;;;28.20;52.30;;;;;;5097457;28;20535;-79
2022/08/02 01:43:03;;;;;;;0.00;0.00;;;28.70;52.30;;;;;;5094051;28;20042;-82
2022/08/02 01:45:32;;;;;;;0.00;0.00;;;29.30;49.90;;;;;;5094621;28;20020;-82
2022/08/02 01:48:00;;;;;;;0.00;0.00;;;29.20;47.70;;;;;;5092418;28;20107;-82
2022/08/02 01:50:31;;;;;;;0.00;0.00;;;28.80;47.70;;;;;;5077324;28;20024;-83
2022/08/02 01:52:59;;;;;;;0.00;0.00;;;28.80;49.20;;;;;;5072281;28;20016;-83
2022/08/02 01:55:30;;;;;;;0.00;0.00;;;28.70;47.90;;;;;;5095448;28;20111;-83
2022/08/02 01:58:00;;;;;;;0.00;0.00;;;28.50;49.40;;;;;;5093107;28;20043;-83
2022/08/02 02:00:31;;;;;;;0.00;0.00;;;28.30;49.30;;;;;;5092779;28;20016;-82
2022/08/02 02:02:58;;;;;;;0.30;0.30;;;28.50;49.20;;;;;;5075413;28;20480;-81
2022/08/02 02:05:30;;;;;;;0.00;0.00;;;29.20;50.40;;;;;;5072469;28;20016;-81
2022/08/02 02:07:59;;;;;;;0.10;0.10;;;30.20;48.90;;;;;;5094549;28;20044;-81
2022/08/02 02:10:31;;;;;;;0.00;0.00;;;30.90;46.10;;;;;;5088659;28;20020;-81
2022/08/02 02:13:03;;;;;;;0.00;0.00;;;31.80;45.30;;;;;;5088383;28;20428;-82
2022/08/02 02:15:30;;;;;;;0.00;0.00;;;32.80;42.60;;;;;;5107093;28;20019;-81
2022/08/02 02:17:59;;;;;;;0.00;0.00;;;33.20;42.50;;;;;;5090110;28;20078;-81
2022/08/02 02:20:26;;;;;;;1.88;1.77;;;33.90;42.10;;;;;;5106383;28;20024;-81
2022/08/02 02:22:52;;;;;;;0.00;0.00;;;34.00;41.70;;;;;;5108945;28;20114;-82
2022/08/02 02:25:21;;;;;;;0.00;0.00;;;34.30;39.00;;;;;;5087341;28;20020;-82
2022/08/02 02:27:54;;;;;;;0.00;0.00;;;33.90;39.10;;;;;;5089597;28;20031;-82
2022/08/02 02:30:25;;;;;;;0.00;0.00;;;33.30;39.90;;;;;;5068337;28;20112;-83
2022/08/02 02:32:54;;;;;;;0.00;0.00;;;32.80;40.30;;;;;;5088681;28;20028;-81
2022/08/02 02:35:21;;;;;;;0.00;0.00;;;33.00;40.10;;;;;;5092910;28;20073;-82
2022/08/02 02:37:50;;;;;;;0.13;0.13;;;33.90;40.00;;;;;;5089659;28;20032;-83
2022/08/02 02:40:18;;;;;;;0.00;0.00;;;32.80;39.90;;;;;;5067941;28;20033;-80
2022/08/02 02:42:47;;;;;;;0.43;0.43;;;32.80;38.30;;;;;;5086038;28;20020;-79
2022/08/02 02:45:14;;;;;;;0.88;0.10;;;32.30;37.90;;;;;;5078063;28;20051;-78
2022/08/02 02:47:41;;;;;;;0.13;0.13;;;32.30;37.50;;;;;;5081545;28;20016;-79
2022/08/02 02:50:09;;;;;;;0.00;0.00;;;32.50;37.70;;;;;;5083096;28;20031;-76
2022/08/02 02:52:38;;;;;;;0.05;0.05;;;32.00;38.80;;;;;;5092509;28;20092;-78
2022/08/02 02:55:06;;;;;;;0.00;0.00;;;32.40;40.50;;;;;;5085612;28;20128;-77
2022/08/02 02:57:34;;;;;;;0.43;0.43;;;32.00;40.10;;;;;;5080530;28;20521;-77
2022/08/02 03:00:02;;;;;;;0.10;0.10;;;32.90;40.10;;;;;;5077454;28;20050;-78
2022/08/02 03:02:29;;;;;;;0.00;0.00;;;34.00;38.40;;;;;;5079089;28;20119;-79
2022/08/02 03:04:57;;;;;;;0.00;0.00;;;35.10;37.50;;;;;;5072736;28;20023;-78
2022/08/02 03:07:23;;;;;;;45.08;6.35;;;35.60;35.90;;;;;;5085004;28;20048;-78
2022/08/02 03:09:49;;;;;;;0.20;0.20;;;35.60;34.60;;;;;;5085208;28;20071;-78
2022/08/02 03:12:16;;;;;;;0.00;0.00;;;34.70;36.10;;;;;;5072725;28;20030;-75
2022/08/02 03:14:43;;;;;;;0.00;0.00;;;33.70;36.40;;;;;;5089741;28;20025;-76
2022/08/02 03:17:09;;;;;;;0.00;0.00;;;32.60;37.90;;;;;;5086676;28;20032;-78
2022/08/02 03:19:35;;;;;;;0.00;0.00;;;33.00;37.30;;;;;;5066098;28;20120;-78
2022/08/02 03:22:01;;;;;;;0.03;0.03;;;33.90;37.20;;;;;;5060346;28;20055;-77
2022/08/02 03:24:27;;;;;;;0.00;0.00;;;34.50;35.70;;;;;;5061470;28;20031;-78
2022/08/02 03:26:54;;;;;;;0.00;0.00;;;34.40;35.10;;;;;;5062935;28;20024;-77
2022/08/02 03:29:20;;;;;;;0.00;0.00;;;34.60;36.50;;;;;;5066816;28;20051;-76
2022/08/02 03:31:56;;;;;;;0.43;0.35;;;35.20;36.00;;;;;;5085037;28;20028;-76
2022/08/02 03:34:23;;;;;;;0.00;0.00;;;35.20;35.30;;;;;;5070333;28;20603;-76
2022/08/02 03:36:57;;;;;;;0.00;0.00;;;33.80;36.30;;;;;;5086439;28;20032;-76
2022/08/02 03:39:26;;;;;;;4.88;2.55;;;34.10;37.60;;;;;;5068505;28;20059;-75
2022/08/02 03:41:53;;;;;;;0.15;0.15;;;33.10;37.30;;;;;;5074390;28;20115;-75
2022/08/02 03:44:20;;;;;;;0.00;0.00;;;32.90;37.40;;;;;;5086707;28;20020;-76
2022/08/02 03:46:46;;;;;;;0.00;0.00;;;31.10;39.80;;;;;;5072609;28;20032;-76
2022/08/02 03:49:15;;;;;;;0.00;0.00;;;30.40;39.90;;;;;;5091181;28;20422;-75
2022/08/02 03:51:41;;;;;;;0.00;0.00;;;30.60;41.40;;;;;;5071329;28;20397;-75
2022/08/02 03:54:08;;;;;;;2.20;0.00;;;30.30;40.70;;;;;;5089294;28;20032;-75
2022/08/02 03:56:34;;;;;;;0.47;0.10;;;30.20;41.00;;;;;;5070440;28;20115;-76
2022/08/02 03:59:11;;;;;;;0.15;0.15;;;30.30;41.30;;;;;;5067947;28;20052;-76
2022/08/02 04:01:38;;;;;;;0.00;0.00;;;29.50;41.40;;;;;;5074676;28;20028;-76
2022/08/02 04:04:05;;;;;;;0.00;0.00;;;29.20;42.00;;;;;;5071890;28;20625;-77
2022/08/02 04:06:32;;;;;;;0.00;0.00;;;29.30;42.70;;;;;;5093100;28;20039;-77
2022/08/02 04:08:58;;;;;;;0.00;0.00;;;29.60;41.10;;;;;;5074295;28;20456;-77
2022/08/02 04:11:30;;;;;;;0.00;0.00;;;29.80;41.00;;;;;;5073900;28;20024;-78
2022/08/02 04:13:57;;;;;;;0.00;0.00;;;29.60;41.10;;;;;;5071114;28;21499;-80
2022/08/02 04:16:47;;;;;;;0.00;0.00;;;29.90;40.50;;;;;;5074915;28;20028;-79
2022/08/02 04:19:41;;;;;;;0.00;0.00;;;30.00;39.80;;;;;;5083694;28;20664;-77
2022/08/02 04:22:15;;;;;;;0.00;0.00;;;30.20;40.10;;;;;;5087516;28;20036;-78
2022/08/02 04:24:46;;;;;;;0.00;0.00;;;30.00;40.80;;;;;;5068636;28;20021;-77
2022/08/02 04:27:14;;;;;;;0.00;0.00;;;29.80;40.30;;;;;;5063267;28;20464;-78
2022/08/02 04:29:41;;;;;;;0.00;0.00;;;29.50;40.60;;;;;;5057926;28;20552;-77
2022/08/02 04:32:07;;;;;;;0.00;0.00;;;29.60;41.00;;;;;;5067586;28;20468;-77
2022/08/02 04:34:34;;;;;;;0.00;0.00;;;29.10;40.80;;;;;;5059343;28;20526;-78
2022/08/02 04:37:01;;;;;;;0.60;0.30;;;29.30;41.20;;;;;;5078757;28;20024;-77
2022/08/02 04:39:27;;;;;;;0.90;0.13;;;29.50;40.40;;;;;;5063819;28;20082;-77
2022/08/02 04:41:56;;;;;;;0.00;0.00;;;29.40;41.00;;;;;;5059746;28;20115;-78
2022/08/02 04:44:22;;;;;;;0.00;0.00;;;29.10;40.50;;;;;;5063069;28;20025;-76
2022/08/02 04:46:49;;;;;;;0.10;0.10;;;29.30;41.00;;;;;;5069055;28;20028;-77
2022/08/02 04:49:18;;;;;;;0.00;0.00;;;29.30;40.60;;;;;;5073441;28;20020;-76
2022/08/02 04:51:44;;;;;;;0.00;0.00;;;29.10;41.00;;;;;;5057767;28;20035;-76
2022/08/02 04:54:11;;;;;;;0.00;0.00;;;29.20;41.40;;;;;;5063721;28;20511;-76
2022/08/02 04:56:38;;;;;;;0.10;0.10;;;29.40;41.10;;;;;;5068719;28;20071;-77
2022/08/02 04:59:05;;;;;;;0.85;0.30;;;29.40;40.30;;;;;;5070170;28;20052;-77
2022/08/02 05:01:34;;;;;;;0.10;0.00;;;29.60;41.10;;;;;;5072094;28;20028;-78
2022/08/02 05:04:03;;;;;;;0.00;0.00;;;29.10;41.30;;;;;;5069409;28;20036;-79
2022/08/02 05:06:30;;;;;;;0.35;0.30;;;29.20;41.90;;;;;;5069015;28;20017;-75
2022/08/02 05:08:56;;;;;;;0.00;0.00;;;29.10;41.60;;;;;;5068378;28;20033;-76
2022/08/02 05:11:23;;;;;;;0.00;0.00;;;29.40;41.80;;;;;;5065029;28;20021;-76
2022/08/02 05:13:49;;;;;;;0.00;0.00;;;29.60;40.90;;;;;;5063956;28;20048;-77
2022/08/02 05:16:16;;;;;;;0.00;0.00;;;29.50;40.90;;;;;;5058163;28;20046;-77
2022/08/02 05:18:42;;;;;;;0.00;0.00;;;29.50;41.10;;;;;;5065386;28;20485;-78
2022/08/02 05:21:09;;;;;;;0.00;0.00;;;29.40;42.00;;;;;;5059024;28;20516;-76
2022/08/02 05:23:35;;;;;;;0.00;0.00;;;29.40;41.20;;;;;;5060447;28;20047;-78
2022/08/02 05:26:01;;;;;;;0.00;0.00;;;29.20;41.80;;;;;;5063978;28;20052;-80
2022/08/02 05:28:29;;;;;;;0.00;0.00;;;29.10;41.30;;;;;;5062286;28;20020;-78
2022/08/02 05:30:55;;;;;;;0.00;0.00;;;29.30;42.90;;;;;;5070214;28;20024;-77
2022/08/02 05:33:22;;;;;;;0.10;0.10;;;29.40;43.60;;;;;;5069491;28;20029;-79
2022/08/02 05:35:50;;;;;;;1.60;0.85;;;29.70;44.20;;;;;;5062937;28;20047;-79
2022/08/02 05:38:16;;;;;;;0.22;0.10;;;29.50;44.20;;;;;;5076252;28;20036;-78
2022/08/02 05:40:42;;;;;;;0.40;0.40;;;29.40;44.70;;;;;;5064647;28;20048;-76
2022/08/02 05:43:15;;;;;;;0.00;0.00;;;29.50;44.30;;;;;;5062244;28;20024;-78
2022/08/02 05:45:41;;;;;;;3.88;3.78;;;29.60;43.90;;;;;;5062981;28;20024;-77
2022/08/02 05:48:07;;;;;;;0.43;0.22;;;29.70;44.30;;;;;;5063213;28;20024;-79
2022/08/02 05:50:38;;;;;;;0.00;0.00;;;29.60;44.70;;;;;;5067248;28;20050;-76
2022/08/02 05:53:18;;;;;;;0.00;0.00;;;29.80;44.20;;;;;;5063557;28;20035;-78
2022/08/02 05:56:07;;;;;;;4.32;0.20;;;29.80;44.00;;;;;;5059503;28;20021;-78
2022/08/02 05:58:49;;;;;;;0.25;0.25;;;29.40;44.40;;;;;;5067471;28;20037;-78
2022/08/02 06:05:45;;;;;;;0.00;0.00;;;29.40;43.70;;;;;;5045654;28;20066;-78
2022/08/02 06:08:57;;;;;;;0.52;0.35;;;29.40;44.30;;;;;;5021583;28;20047;-79
2022/08/02 06:15:57;;;;;;;;;;;;;;;;;;;;;
2022/08/02 06:19:24;;;;;;;;;;;;;;;;;;;;;
2022/08/02 06:25:21;;;;;;;17.35;2.97;;;29.70;42.20;;;;;;5089055;28;20442;-80
2022/08/02 06:27:51;;;;;;;0.00;0.00;;;29.70;42.60;;;;;;5077454;28;20076;-79
2022/08/02 06:30:21;;;;;;;0.00;0.00;;;29.80;41.00;;;;;;5063139;28;20032;-81
2022/08/02 06:33:01;;;;;;;0.00;0.00;;;29.50;42.20;;;;;;5066289;28;20065;-79
2022/08/02 06:35:58;;;;;;;2.13;1.70;;;29.80;42.20;;;;;;5071837;28;20043;-81
2022/08/02 06:43:04;;;;;;;0.00;0.00;;;29.80;41.60;;;;;;5042659;28;20032;-79
2022/08/02 06:49:01;;;;;;;1.02;0.43;;;29.90;40.70;;;;;;4951421;29;20043;-80
2022/08/02 06:51:28;;;;;;;0.30;0.30;;;30.20;39.80;;;;;;4978866;28;20053;-82
2022/08/02 06:54:00;;;;;;;0.03;0.03;;;30.00;39.00;;;;;;4987913;28;20057;-81
2022/08/02 06:56:49;;;;;;;0.00;0.00;;;29.90;38.40;;;;;;5002862;28;20065;-80
2022/08/02 06:59:54;;;;;;;0.10;0.10;;;29.70;37.90;;;;;;4972757;28;20126;-80
2022/08/02 07:02:40;;;;;;;0.00;0.00;;;30.00;36.70;;;;;;4985591;28;20038;-81
2022/08/02 07:05:18;;;;;;;0.00;0.00;;;29.90;37.00;;;;;;4995857;28;20037;-80
2022/08/02 07:07:58;;;;;;;0.70;0.57;;;30.10;38.20;;;;;;5076555;28;20052;-80
2022/08/02 07:10:43;;;;;;;0.20;0.00;;;30.30;38.10;;;;;;5068251;28;20029;-78
2022/08/02 07:13:12;;;;;;;0.28;0.28;;;30.30;37.50;;;;;;5066189;28;20036;-79
2022/08/02 07:15:45;;;;;;;0.10;0.10;;;30.10;38.70;;;;;;5062713;28;20481;-79
2022/08/02 07:18:19;;;;;;;0.03;0.03;;;30.20;35.80;;;;;;5073850;28;20405;-78
2022/08/02 07:20:56;;;;;;;0.00;0.00;;;30.20;34.80;;;;;;5071911;28;20037;-78
2022/08/02 07:23:42;;;;;;;3.85;0.68;;;30.40;35.70;;;;;;5079506;28;20500;-79
2022/08/02 07:26:19;;;;;;;0.47;0.17;;;30.30;36.50;;;;;;5071592;28;20029;-78
2022/08/02 07:29:08;;;;;;;0.90;0.90;;;30.60;37.30;;;;;;5076617;28;20025;-77
2022/08/02 07:32:07;;;;;;;0.00;0.00;;;30.40;36.20;;;;;;5083863;28;20161;-78
2022/08/02 07:34:37;;;;;;;0.00;0.00;;;30.20;36.00;;;;;;5069031;28;20032;-79
2022/08/02 07:37:06;;;;;;;0.63;0.63;;;30.50;36.90;;;;;;5068299;28;20104;-80
2022/08/02 07:39:36;;;;;;;0.20;0.20;;;30.90;37.30;;;;;;5073125;28;20028;-81
2022/08/02 07:42:02;;;;;;;0.20;0.20;;;30.70;35.50;;;;;;5066058;28;20025;-80
2022/08/02 07:44:54;;;;;;;0.03;0.03;;;30.80;35.80;;;;;;5066815;28;20108;-81
2022/08/02 07:47:43;;;;;;;0.45;0.15;;;31.10;36.80;;;;;;5081574;28;20017;-79
2022/08/02 07:50:45;;;;;;;0.25;0.25;;;30.90;37.70;;;;;;5071232;28;20036;-79
2022/08/02 07:53:20;;;;;;;3.83;2.60;;;30.80;36.40;;;;;;5064180;28;20021;-81
2022/08/02 07:56:10;;;;;;;1.95;1.85;;;31.10;35.30;;;;;;5067758;28;20032;-82
2022/08/02 07:58:55;;;;;;;0.63;0.63;;;31.10;34.60;;;;;;5065374;28;20016;-81
2022/08/02 08:01:52;;;;;;;0.10;0.10;;;31.10;35.10;;;;;;5088219;28;20032;-81
2022/08/02 08:04:22;;;;;;;0.45;0.43;;;31.00;35.70;;;;;;5076944;28;20078;-81
2022/08/02 08:14:51;;;;;;;0.00;0.00;;;31.20;35.00;;;;;;5088414;28;20035;-79
2022/08/02 08:17:54;;;;;;;2.22;0.90;;;31.80;33.80;;;;;;5036878;28;20032;-79
2022/08/02 08:21:00;;;;;;;0.00;0.00;;;31.90;32.50;;;;;;5069104;28;20035;-79
2022/08/02 08:24:46;;;;;;;1.38;0.73;;;31.80;32.10;;;;;;5060826;28;20032;-82
2022/08/02 08:27:23;;;;;;;0.00;0.00;;;31.90;32.00;;;;;;5047116;28;20030;-80
2022/08/02 08:30:25;;;;;;;1.05;0.60;;;31.70;31.60;;;;;;5065031;28;20028;-79
2022/08/02 08:33:05;;;;;;;0.10;0.00;;;31.90;30.90;;;;;;5075405;28;20042;-79
2022/08/02 08:35:43;;;;;;;3.28;0.20;;;31.70;30.90;;;;;;5052727;28;20416;-79
2022/08/02 08:41:06;;;;;;;0.45;0.45;;;31.70;30.30;;;;;;5087216;28;20075;-80
2022/08/02 08:44:32;;;;;;;2.65;2.45;;;31.80;31.40;;;;;;5069274;28;20028;-79
2022/08/02 08:47:04;;;;;;;0.00;0.00;;;31.80;31.80;;;;;;5053422;28;20028;-79
2022/08/02 08:49:36;;;;;;;0.00;0.00;;;31.90;32.20;;;;;;5068958;28;20021;-79
2022/08/02 08:52:06;;;;;;;0.00;0.00;;;31.90;31.90;;;;;;5067845;28;20066;-79
2022/08/02 08:54:36;;;;;;;0.00;0.00;;;32.00;30.50;;;;;;5065512;28;20024;-80
2022/08/02 08:57:06;;;;;;;0.00;0.00;;;31.70;31.10;;;;;;5066413;28;20111;-76
2022/08/02 08:59:37;;;;;;;2.08;1.20;;;31.80;30.80;;;;;;5072942;28;20169;-80
2022/08/02 09:02:04;;;;;;;0.88;0.85;;;32.00;31.10;;;;;;5077193;28;20234;-79
2022/08/02 09:04:31;;;;;;;0.00;0.00;;;32.10;32.00;;;;;;5072373;28;20025;-80
2022/08/02 09:06:57;;;;;;;2.58;2.38;;;32.40;32.50;;;;;;5085085;28;20024;-80
2022/08/02 09:09:26;;;;;;;0.17;0.17;;;32.40;31.50;;;;;;5074129;28;20032;-80
2022/08/02 09:11:53;;;;;;;0.65;0.65;;;32.10;33.50;;;;;;5084474;28;20028;-79
2022/08/02 09:14:28;;;;;;;0.00;0.00;;;32.00;33.30;;;;;;5069830;28;20028;-80
2022/08/02 09:17:06;;;;;;;0.00;0.00;;;32.30;32.50;;;;;;5088772;28;20056;-81
2022/08/02 09:19:35;;;;;;;5.90;4.15;;;32.40;32.80;;;;;;5074098;28;20039;-81
2022/08/02 09:22:07;;;;;;;0.10;0.10;;;32.70;32.90;;;;;;5089006;28;20080;-81
2022/08/02 09:24:44;;;;;;;0.00;0.00;;;33.00;32.70;;;;;;5071913;28;20048;-77
2022/08/02 09:27:15;;;;;;;3.40;2.83;;;33.00;32.40;;;;;;5070793;28;20025;-77
2022/08/02 09:29:46;;;;;;;1.98;0.35;;;32.20;33.10;;;;;;5094555;28;20023;-76
2022/08/02 09:32:12;;;;;;;0.17;0.17;;;32.10;33.60;;;;;;5067871;28;20028;-77
2022/08/02 09:34:50;;;;;;;0.00;0.00;;;32.20;33.50;;;;;;5084258;28;20024;-78
2022/08/02 09:37:32;;;;;;;0.00;0.00;;;31.60;34.20;;;;;;5095090;28;20016;-78
2022/08/02 09:39:59;;;;;;;0.00;0.00;;;31.50;33.80;;;;;;5093785;28;20047;-79
2022/08/02 09:42:26;;;;;;;0.00;0.00;;;31.40;34.00;;;;;;5072615;28;20297;-79
2022/08/02 09:44:53;;;;;;;0.00;0.00;;;31.70;35.10;;;;;;5089492;28;20121;-79
2022/08/02 09:47:20;;;;;;;0.00;0.00;;;32.10;34.00;;;;;;5091002;28;20020;-78
2022/08/02 09:49:49;;;;;;;0.00;0.00;;;32.00;34.50;;;;;;5073727;28;20023;-78
2022/08/02 09:52:22;;;;;;;0.10;0.10;;;31.80;34.20;;;;;;5108629;28;20165;-79
2022/08/02 09:54:48;;;;;;;0.00;0.00;;;32.00;33.90;;;;;;5066230;28;20078;-79
2022/08/02 09:57:26;;;;;;;0.00;0.00;;;32.00;32.90;;;;;;5097781;28;20051;-81
2022/08/02 09:59:55;;;;;;;0.85;0.57;;;32.00;33.00;;;;;;5085287;28;20036;-78
2022/08/02 10:02:21;;;;;;;0.00;0.00;;;31.70;32.90;;;;;;5074432;28;20028;-80
2022/08/02 10:04:50;;;;;;;0.00;0.00;;;31.50;33.00;;;;;;5073555;28;20032;-78
2022/08/02 10:07:17;;;;;;;0.00;0.00;;;31.60;32.40;;;;;;5072686;28;20063;-79
2022/08/02 10:09:45;;;;;;;0.00;0.00;;;31.60;32.70;;;;;;5075354;28;20028;-79
2022/08/02 10:12:12;;;;;;;0.00;0.00;;;31.80;33.10;;;;;;5092250;28;20088;-78
2022/08/02 10:14:38;;;;;;;0.00;0.00;;;32.00;32.90;;;;;;5092740;28;20028;-80
2022/08/02 10:17:06;;;;;;;0.13;0.13;;;32.10;33.40;;;;;;5069998;28;20388;-79
2022/08/02 10:19:35;;;;;;;0.00;0.00;;;32.10;34.10;;;;;;5088550;28;20054;-79
2022/08/02 10:22:05;;;;;;;0.00;0.00;;;32.20;34.50;;;;;;5076192;28;20495;-80
2022/08/02 10:24:35;;;;;;;0.00;0.00;;;32.30;34.70;;;;;;5074055;28;20035;-79
2022/08/02 10:27:02;;;;;;;0.00;0.00;;;32.30;34.70;;;;;;5092443;28;20107;-79
2022/08/02 10:29:34;;;;;;;0.03;0.00;;;32.20;35.40;;;;;;5092545;28;20021;-79
2022/08/02 10:32:34;;;;;;;0.10;0.10;;;32.20;35.40;;;;;;5088647;28;20025;-77
2022/08/02 10:35:13;;;;;;;0.20;0.20;;;32.20;34.90;;;;;;5020417;28;20428;-78
2022/08/02 10:37:41;;;;;;;0.35;0.35;;;31.80;34.20;;;;;;5087713;28;20043;-78
2022/08/02 10:40:21;;;;;;;0.00;0.00;;;31.70;34.50;;;;;;5068333;28;20073;-78
2022/08/02 10:42:52;;;;;;;0.45;0.45;;;31.60;34.80;;;;;;5088840;28;20126;-78
2022/08/02 10:45:20;;;;;;;0.00;0.00;;;31.40;35.10;;;;;;5092067;28;20023;-78
2022/08/02 10:48:06;;;;;;;0.28;0.28;;;31.40;35.50;;;;;;5089758;28;20078;-78
2022/08/02 10:50:47;;;;;;;0.00;0.00;;;31.30;35.90;;;;;;5085238;28;20016;-79
2022/08/02 10:53:30;;;;;;;0.00;0.00;;;31.30;35.90;;;;;;5074472;28;20107;-78
2022/08/02 10:56:01;;;;;;;0.00;0.00;;;31.20;36.00;;;;;;5085846;28;20028;-78
2022/08/02 10:58:32;;;;;;;0.00;0.00;;;31.00;36.70;;;;;;5074161;28;20111;-79
2022/08/02 11:01:05;;;;;;;0.10;0.10;;;31.10;36.10;;;;;;5073167;28;20428;-79
2022/08/02 11:03:32;;;;;;;4.65;4.38;;;31.10;36.40;;;;;;5078604;28;20054;-77
2022/08/02 11:06:05;;;;;;;1.75;1.65;;;30.80;36.50;;;;;;5084501;28;20549;-79
2022/08/02 11:08:31;;;;;;;0.00;0.00;;;30.70;37.10;;;;;;5069166;28;20021;-80
2022/08/02 11:11:09;;;;;;;0.00;0.00;;;30.70;37.20;;;;;;5084847;28;20016;-79
2022/08/02 11:14:07;;;;;;;0.35;0.35;;;30.70;37.20;;;;;;5090612;28;20032;-78
2022/08/02 11:16:55;;;;;;;0.22;0.20;;;30.40;37.60;;;;;;5103079;28;20040;-80
2022/08/02 11:19:25;;;;;;;0.00;0.00;;;30.10;39.80;;;;;;5097604;28;20093;-78
2022/08/02 11:22:06;;;;;;;0.20;0.15;;;29.60;41.60;;;;;;5076126;28;20059;-78
2022/08/02 11:24:35;;;;;;;0.00;0.00;;;29.10;43.90;;;;;;5077382;28;20370;-77
2022/08/02 11:27:06;;;;;;;0.77;0.70;;;28.90;45.30;;;;;;5096476;28;20103;-79
2022/08/02 11:29:43;;;;;;;1.08;0.10;;;28.10;47.40;;;;;;5098228;28;20020;-79
2022/08/02 11:32:26;;;;;;;0.10;0.10;;;27.80;48.70;;;;;;5076442;28;20483;-76
2022/08/02 11:34:53;;;;;;;0.13;0.08;;;27.60;48.60;;;;;;5087484;28;20028;-78
2022/08/02 11:37:36;;;;;;;0.00;0.00;;;27.30;48.60;;;;;;5084308;28;20028;-78
2022/08/02 11:40:07;;;;;;;0.00;0.00;;;27.30;48.90;;;;;;5088085;28;20044;-80
2022/08/02 11:42:35;;;;;;;0.45;0.45;;;27.50;47.90;;;;;;5085896;28;20107;-79
2022/08/02 11:45:01;;;;;;;0.00;0.00;;;27.50;47.50;;;;;;5083134;28;20028;-79
2022/08/02 11:47:27;;;;;;;0.00;0.00;;;27.30;47.90;;;;;;5084940;28;21770;-78
2022/08/02 11:50:15;;;;;;;0.00;0.00;;;27.20;48.30;;;;;;5064092;28;20033;-81
2022/08/02 11:52:42;;;;;;;0.00;0.00;;;27.00;48.80;;;;;;5087677;28;20032;-82
2022/08/02 11:55:10;;;;;;;0.00;0.00;;;27.00;48.40;;;;;;5090287;28;20028;-78
2022/08/02 11:57:40;;;;;;;0.10;0.10;;;26.90;48.50;;;;;;5090620;28;20020;-81
2022/08/02 12:00:17;;;;;;;0.00;0.00;;;26.80;52.20;;;;;;5085442;28;20415;-78
2022/08/02 12:02:51;;;;;;;0.00;0.00;;;27.00;52.90;;;;;;5086720;28;20115;-82
2022/08/02 12:05:25;;;;;;;0.00;0.00;;;27.00;52.40;;;;;;5082480;28;20074;-79
2022/08/02 12:07:52;;;;;;;0.00;0.00;;;27.00;52.70;;;;;;5070472;28;20023;-81
2022/08/02 12:10:22;;;;;;;0.00;0.00;;;26.80;50.90;;;;;;5060084;28;20168;-80
2022/08/02 12:12:57;;;;;;;0.00;0.00;;;26.70;50.40;;;;;;5074028;28;20032;-83
2022/08/02 12:15:40;;;;;;;0.30;0.25;;;26.70;50.00;;;;;;5061790;28;20047;-84
2022/08/02 12:21:01;;;;;;;0.00;0.00;;;27.00;47.20;;;;;;5077447;28;20043;-81
2022/08/02 12:23:27;;;;;;;0.00;0.00;;;27.20;47.00;;;;;;5061262;28;20364;-82
2022/08/02 12:26:10;;;;;;;0.00;0.00;;;27.30;46.80;;;;;;5058247;28;20035;-84
2022/08/02 12:28:38;;;;;;;0.00;0.00;;;27.40;46.50;;;;;;5060618;28;20024;-83
2022/08/02 12:31:07;;;;;;;0.25;0.25;;;27.60;45.70;;;;;;5063036;28;20029;-83
2022/08/02 12:33:53;;;;;;;0.00;0.00;;;27.70;45.60;;;;;;5089559;28;20032;-84
2022/08/02 12:36:25;;;;;;;0.00;0.00;;;27.90;45.60;;;;;;5076374;28;20024;-83
2022/08/02 12:38:52;;;;;;;0.00;0.00;;;27.90;45.00;;;;;;5082731;28;20028;-80
2022/08/02 12:41:19;;;;;;;0.00;0.00;;;27.90;45.30;;;;;;5079176;28;20029;-80
2022/08/02 12:43:45;;;;;;;0.52;0.45;;;28.00;45.00;;;;;;5063878;28;20016;-87
2022/08/02 12:46:23;;;;;;;0.10;0.10;;;27.80;45.30;;;;;;5059903;28;20057;-87
2022/08/02 12:48:56;;;;;;;0.08;0.08;;;27.90;45.20;;;;;;5065135;28;20032;-84
2022/08/02 12:52:00;;;;;;;32.72;6.53;;;28.00;44.70;;;;;;5060127;28;20056;-81
2022/08/02 12:54:39;;;;;;;0.43;0.32;;;28.10;44.20;;;;;;5037290;28;20131;-84
2022/08/02 12:57:25;;;;;;;0.00;0.00;;;28.20;44.00;;;;;;5055065;28;20024;-84
2022/08/02 12:59:57;;;;;;;0.65;0.10;;;28.20;44.00;;;;;;5077054;28;20066;-80
2022/08/02 13:02:24;;;;;;;0.00;0.00;;;28.10;43.90;;;;;;5075642;28;20043;-82
2022/08/02 13:04:53;;;;;;;0.00;0.00;;;28.20;43.50;;;;;;5074737;28;20020;-84
2022/08/02 13:07:28;;;;;;;0.00;0.00;;;28.20;42.90;;;;;;5088891;28;20073;-83
2022/08/02 13:10:23;;;;;;;0.00;0.00;;;28.00;42.80;;;;;;5072634;28;20078;-83
2022/08/02 13:13:00;;;;;;;0.00;0.00;;;27.90;43.00;;;;;;5054030;28;20442;-83
2022/08/02 13:15:27;;;;;;;0.00;0.00;;;28.00;43.10;;;;;;5053106;28;20059;-82
2022/08/02 13:17:53;;;;;;;0.00;0.00;;;28.00;41.80;;;;;;5074681;28;20017;-82
2022/08/02 13:20:19;;;;;;;0.00;0.00;;;28.20;41.60;;;;;;5075515;28;20024;-81
2022/08/02 13:22:46;;;;;;;0.00;0.00;;;28.20;42.00;;;;;;5082173;28;20024;-83
2022/08/02 13:25:12;;;;;;;0.00;0.00;;;28.20;41.70;;;;;;5071006;28;20043;-81
2022/08/02 13:27:38;;;;;;;0.00;0.00;;;28.20;42.00;;;;;;5076262;28;20148;-83
2022/08/02 13:30:06;;;;;;;0.00;0.00;;;28.20;41.70;;;;;;5075871;28;20040;-84
2022/08/02 13:32:32;;;;;;;0.00;0.00;;;28.10;41.40;;;;;;5075789;28;20078;-81
2022/08/02 13:34:58;;;;;;;0.00;0.00;;;28.10;42.00;;;;;;5074451;28;20111;-83
2022/08/02 13:37:25;;;;;;;0.00;0.00;;;28.00;41.80;;;;;;5075854;28;20024;-81
2022/08/02 13:39:51;;;;;;;0.20;0.20;;;28.00;42.00;;;;;;5057588;28;20051;-83
2022/08/02 13:42:17;;;;;;;0.60;0.57;;;28.20;42.10;;;;;;5075896;28;20038;-82
2022/08/02 13:44:44;;;;;;;0.00;0.00;;;28.20;42.30;;;;;;5076186;28;20512;-83
2022/08/02 13:47:10;;;;;;;0.00;0.00;;;28.40;41.90;;;;;;5062291;28;20518;-83
2022/08/02 13:49:37;;;;;;;6.03;5.72;;;28.40;42.00;;;;;;5081302;28;20472;-81